sensor_id;sensor_type;location;lat;lon;timestamp;pressure;altitude;pressure_sealevel;temperature;humidity
29215;BME280;16252;49.816;7.964;2022-08-04T00:01:50;99708.25;;;28.15;33.60
29215;BME280;16252;49.816;7.964;2022-08-04T00:04:27;99696.91;;;28.00;33.29
29215;BME280;16252;49.816;7.964;2022-08-04T00:07:05;99701.78;;;27.98;33.30
29215;BME280;16252;49.816;7.964;2022-08-04T00:09:44;99704.06;;;27.89;33.58
29215;BME280;16252;49.816;7.964;2022-08-04T00:12:15;99690.28;;;27.65;34.21
29215;BME280;16252;49.816;7.964;2022-08-04T00:14:52;99701.53;;;27.76;33.88
29215;BME280;16252;49.816;7.964;2022-08-04T00:17:24;99704.97;;;27.71;34.18
29215;BME280;16252;49.816;7.964;2022-08-04T00:19:52;99714.09;;;27.95;32.54
29215;BME280;16252;49.816;7.964;2022-08-04T00:22:22;99706.63;;;27.72;33.86
29215;BME280;16252;49.816;7.964;2022-08-04T00:24:50;99713.19;;;27.59;34.19
29215;BME280;16252;49.816;7.964;2022-08-04T00:27:16;99688.56;;;27.41;34.26
29215;BME280;16252;49.816;7.964;2022-08-04T00:29:41;99705.28;;;27.51;34.45
29215;BME280;16252;49.816;7.964;2022-08-04T00:32:07;99687.94;;;27.39;34.59
29215;BME280;16252;49.816;7.964;2022-08-04T00:34:33;99690.81;;;27.32;34.31
29215;BME280;16252;49.816;7.964;2022-08-04T00:36:59;99696.19;;;27.39;34.46
29215;BME280;16252;49.816;7.964;2022-08-04T00:39:25;99708.47;;;27.36;34.74
29215;BME280;16252;49.816;7.964;2022-08-04T00:48:10;99689.81;;;27.27;33.98
29215;BME280;16252;49.816;7.964;2022-08-04T00:50:44;99709.91;;;27.27;34.98
29215;BME280;16252;49.816;7.964;2022-08-04T01:01:37;99710.59;;;27.04;35.33
29215;BME280;16252;49.816;7.964;2022-08-04T01:04:15;99707.84;;;27.04;35.07
29215;BME280;16252;49.816;7.964;2022-08-04T01:07:21;99696.34;;;26.95;34.77
29215;BME280;16252;49.816;7.964;2022-08-04T01:10:09;99712.75;;;27.02;35.12
29215;BME280;16252;49.816;7.964;2022-08-04T01:15:44;99708.28;;;26.89;35.49
29215;BME280;16252;49.816;7.964;2022-08-04T01:18:20;99703.47;;;26.85;35.31
29215;BME280;16252;49.816;7.964;2022-08-04T01:26:42;99714.19;;;26.86;35.22
29215;BME280;16252;49.816;7.964;2022-08-04T01:29:14;99702.50;;;26.61;36.09
29215;BME280;16252;49.816;7.964;2022-08-04T01:32:13;99720.25;;;26.76;35.29
29215;BME280;16252;49.816;7.964;2022-08-04T01:34:50;99720.41;;;26.63;35.44
29215;BME280;16252;49.816;7.964;2022-08-04T01:40:20;99702.84;;;26.46;36.34
29215;BME280;16252;49.816;7.964;2022-08-04T01:42:45;99679.44;;;26.25;35.85
29215;BME280;16252;49.816;7.964;2022-08-04T01:45:14;99703.97;;;26.38;36.71
29215;BME280;16252;49.816;7.964;2022-08-04T01:47:42;99690.09;;;26.33;36.59
29215;BME280;16252;49.816;7.964;2022-08-04T01:50:12;99697.50;;;26.32;36.65
29215;BME280;16252;49.816;7.964;2022-08-04T01:52:42;99691.41;;;26.30;36.64
29215;BME280;16252;49.816;7.964;2022-08-04T01:55:10;99670.06;;;26.14;36.81
29215;BME280;16252;49.816;7.964;2022-08-04T01:57:41;99687.00;;;26.29;36.64
29215;BME280;16252;49.816;7.964;2022-08-04T02:00:08;99693.56;;;26.28;36.57
29215;BME280;16252;49.816;7.964;2022-08-04T02:02:33;99694.22;;;26.24;36.83
29215;BME280;16252;49.816;7.964;2022-08-04T02:04:59;99695.91;;;26.25;36.83
29215;BME280;16252;49.816;7.964;2022-08-04T02:07:27;99697.59;;;26.26;36.88
29215;BME280;16252;49.816;7.964;2022-08-04T02:10:23;99698.94;;;26.35;36.48
29215;BME280;16252;49.816;7.964;2022-08-04T02:15:35;99683.09;;;26.19;36.83
29215;BME280;16252;49.816;7.964;2022-08-04T02:18:11;99693.00;;;26.20;37.23
29215;BME280;16252;49.816;7.964;2022-08-04T02:20:45;99671.72;;;25.97;37.00
29215;BME280;16252;49.816;7.964;2022-08-04T02:23:19;99683.06;;;26.00;37.37
29215;BME280;16252;49.816;7.964;2022-08-04T02:25:55;99700.38;;;26.01;37.11
29215;BME280;16252;49.816;7.964;2022-08-04T02:28:35;99658.63;;;25.73;37.07
29215;BME280;16252;49.816;7.964;2022-08-04T02:31:27;99685.25;;;25.91;36.90
29215;BME280;16252;49.816;7.964;2022-08-04T02:34:05;99693.97;;;25.82;37.41
29215;BME280;16252;49.816;7.964;2022-08-04T02:36:38;99694.88;;;25.76;37.76
29215;BME280;16252;49.816;7.964;2022-08-04T02:39:06;99659.69;;;25.47;37.67
29215;BME280;16252;49.816;7.964;2022-08-04T02:41:32;99655.94;;;25.42;37.86
29215;BME280;16252;49.816;7.964;2022-08-04T02:44:00;99653.88;;;25.37;38.25
29215;BME280;16252;49.816;7.964;2022-08-04T02:46:28;99676.06;;;25.54;38.36
29215;BME280;16252;49.816;7.964;2022-08-04T02:48:54;99675.50;;;25.45;38.35
29215;BME280;16252;49.816;7.964;2022-08-04T02:51:26;99631.81;;;25.32;38.24
29215;BME280;16252;49.816;7.964;2022-08-04T02:53:55;99671.66;;;25.53;38.17
29215;BME280;16252;49.816;7.964;2022-08-04T02:56:21;99665.00;;;25.42;38.19
29215;BME280;16252;49.816;7.964;2022-08-04T02:58:51;99666.00;;;25.48;38.04
29215;BME280;16252;49.816;7.964;2022-08-04T03:04:01;99671.66;;;25.53;37.92
29215;BME280;16252;49.816;7.964;2022-08-04T03:06:58;99657.56;;;25.49;37.84
29215;BME280;16252;49.816;7.964;2022-08-04T03:13:22;99654.44;;;25.46;37.34
29215;BME280;16252;49.816;7.964;2022-08-04T03:16:00;99667.56;;;25.37;38.05
29215;BME280;16252;49.816;7.964;2022-08-04T03:29:08;99674.66;;;25.06;38.70
29215;BME280;16252;49.816;7.964;2022-08-04T03:31:44;99672.59;;;25.02;38.95
29215;BME280;16252;49.816;7.964;2022-08-04T03:34:27;99681.03;;;25.00;38.89
29215;BME280;16252;49.816;7.964;2022-08-04T03:40:28;99662.53;;;24.96;38.34
29215;BME280;16252;49.816;7.964;2022-08-04T03:43:25;99664.88;;;24.92;38.53
29215;BME280;16252;49.816;7.964;2022-08-04T03:49:31;99676.22;;;24.96;38.46
29215;BME280;16252;49.816;7.964;2022-08-04T03:52:22;99670.81;;;24.82;39.00
29215;BME280;16252;49.816;7.964;2022-08-04T03:55:24;99679.84;;;24.83;39.16
29215;BME280;16252;49.816;7.964;2022-08-04T04:12:02;99685.75;;;24.80;39.20
29215;BME280;16252;49.816;7.964;2022-08-04T04:14:40;99676.53;;;24.74;39.85
29215;BME280;16252;49.816;7.964;2022-08-04T04:26:36;99685.59;;;24.75;39.29
29215;BME280;16252;49.816;7.964;2022-08-04T04:37:31;99687.34;;;24.42;40.20
29215;BME280;16252;49.816;7.964;2022-08-04T04:40:14;99695.50;;;24.69;38.31
29215;BME280;16252;49.816;7.964;2022-08-04T04:51:46;99705.88;;;24.47;39.82
29215;BME280;16252;49.816;7.964;2022-08-04T04:54:23;99700.81;;;24.44;40.83
29215;BME280;16252;49.816;7.964;2022-08-04T04:57:14;99673.47;;;24.37;40.34
29215;BME280;16252;49.816;7.964;2022-08-04T04:59:48;99701.88;;;24.50;40.90
29215;BME280;16252;49.816;7.964;2022-08-04T05:02:40;99706.25;;;24.57;40.42
29215;BME280;16252;49.816;7.964;2022-08-04T05:05:32;99707.31;;;24.56;40.33
29215;BME280;16252;49.816;7.964;2022-08-04T05:13:31;99718.13;;;24.90;39.25
29215;BME280;16252;49.816;7.964;2022-08-04T05:16:20;99705.16;;;24.72;40.34
29215;BME280;16252;49.816;7.964;2022-08-04T05:21:46;99700.53;;;24.72;41.15
29215;BME280;16252;49.816;7.964;2022-08-04T05:24:13;99711.66;;;24.84;41.28
29215;BME280;16252;49.816;7.964;2022-08-04T05:26:49;99721.91;;;24.95;41.39
29215;BME280;16252;49.816;7.964;2022-08-04T05:29:33;99689.31;;;24.87;41.20
29215;BME280;16252;49.816;7.964;2022-08-04T05:32:01;99687.88;;;24.78;41.64
29215;BME280;16252;49.816;7.964;2022-08-04T05:34:29;99715.88;;;25.25;39.46
29215;BME280;16252;49.816;7.964;2022-08-04T05:37:00;99710.25;;;25.06;40.93
29215;BME280;16252;49.816;7.964;2022-08-04T05:39:31;99720.09;;;25.14;41.21
29215;BME280;16252;49.816;7.964;2022-08-04T05:42:00;99715.69;;;25.13;41.66
29215;BME280;16252;49.816;7.964;2022-08-04T05:44:27;99713.16;;;25.12;40.94
29215;BME280;16252;49.816;7.964;2022-08-04T05:46:57;99723.84;;;25.26;41.01
29215;BME280;16252;49.816;7.964;2022-08-04T05:49:24;99717.16;;;25.22;41.30
29215;BME280;16252;49.816;7.964;2022-08-04T05:51:50;99722.56;;;25.29;41.28
29215;BME280;16252;49.816;7.964;2022-08-04T05:54:17;99706.41;;;25.21;41.47
29215;BME280;16252;49.816;7.964;2022-08-04T05:56:43;99725.28;;;25.36;41.53
29215;BME280;16252;49.816;7.964;2022-08-04T05:59:10;99714.06;;;25.44;41.26
29215;BME280;16252;49.816;7.964;2022-08-04T06:01:37;99722.44;;;25.49;41.13
29215;BME280;16252;49.816;7.964;2022-08-04T06:04:04;99731.47;;;25.56;41.35
29215;BME280;16252;49.816;7.964;2022-08-04T06:06:30;99715.03;;;25.56;41.26
29215;BME280;16252;49.816;7.964;2022-08-04T06:08:56;99731.59;;;25.68;41.21
29215;BME280;16252;49.816;7.964;2022-08-04T06:11:22;99722.69;;;25.72;41.47
29215;BME280;16252;49.816;7.964;2022-08-04T06:13:53;99728.94;;;25.86;41.57
29215;BME280;16252;49.816;7.964;2022-08-04T06:16:23;99727.66;;;26.14;39.89
29215;BME280;16252;49.816;7.964;2022-08-04T06:18:50;99721.84;;;26.04;40.99
29215;BME280;16252;49.816;7.964;2022-08-04T06:21:22;99706.44;;;26.03;41.16
29215;BME280;16252;49.816;7.964;2022-08-04T06:23:50;99713.16;;;26.07;41.39
29215;BME280;16252;49.816;7.964;2022-08-04T06:26:17;99663.81;;;25.82;41.07
29215;BME280;16252;49.816;7.964;2022-08-04T06:28:50;99722.44;;;26.31;40.65
29215;BME280;16252;49.816;7.964;2022-08-04T06:31:18;99730.81;;;26.36;40.80
29215;BME280;16252;49.816;7.964;2022-08-04T06:34:05;99722.09;;;26.64;39.56
29215;BME280;16252;49.816;7.964;2022-08-04T06:36:32;99703.28;;;26.43;40.46
29215;BME280;16252;49.816;7.964;2022-08-04T06:39:03;99710.38;;;26.50;40.33
29215;BME280;16252;49.816;7.964;2022-08-04T06:41:29;99720.41;;;26.63;40.52
29215;BME280;16252;49.816;7.964;2022-08-04T06:43:58;99683.03;;;26.44;40.28
29215;BME280;16252;49.816;7.964;2022-08-04T06:46:25;99722.38;;;26.74;40.32
29215;BME280;16252;49.816;7.964;2022-08-04T06:48:52;99723.00;;;26.76;40.27
29215;BME280;16252;49.816;7.964;2022-08-04T06:51:19;99713.84;;;26.83;40.36
29215;BME280;16252;49.816;7.964;2022-08-04T06:53:46;99710.16;;;26.89;40.11
29215;BME280;16252;49.816;7.964;2022-08-04T06:56:13;99706.72;;;26.93;39.86
29215;BME280;16252;49.816;7.964;2022-08-04T06:58:39;99690.13;;;26.88;39.83
29215;BME280;16252;49.816;7.964;2022-08-04T07:01:06;99725.84;;;27.18;40.05
29215;BME280;16252;49.816;7.964;2022-08-04T07:03:32;99721.59;;;27.22;39.35
29215;BME280;16252;49.816;7.964;2022-08-04T07:05:58;99717.28;;;27.27;39.45
29215;BME280;16252;49.816;7.964;2022-08-04T07:08:24;99724.81;;;27.31;39.24
29215;BME280;16252;49.816;7.964;2022-08-04T07:10:51;99722.81;;;27.38;39.33
29215;BME280;16252;49.816;7.964;2022-08-04T07:13:19;99727.97;;;27.47;39.08
29215;BME280;16252;49.816;7.964;2022-08-04T07:15:46;99718.19;;;27.51;38.77
29215;BME280;16252;49.816;7.964;2022-08-04T07:18:12;99713.56;;;27.63;38.60
29215;BME280;16252;49.816;7.964;2022-08-04T07:20:42;99722.81;;;27.80;38.49
29215;BME280;16252;49.816;7.964;2022-08-04T07:23:08;99694.59;;;27.73;38.68
29215;BME280;16252;49.816;7.964;2022-08-04T07:25:36;99663.84;;;27.64;38.70
29215;BME280;16252;49.816;7.964;2022-08-04T07:28:01;99728.59;;;28.14;38.52
29215;BME280;16252;49.816;7.964;2022-08-04T07:30:27;99693.34;;;28.11;38.25
29215;BME280;16252;49.816;7.964;2022-08-04T07:32:54;99720.94;;;28.40;38.04
29215;BME280;16252;49.816;7.964;2022-08-04T07:35:20;99718.06;;;28.58;37.82
29215;BME280;16252;49.816;7.964;2022-08-04T07:37:46;99718.03;;;28.70;37.72
29215;BME280;16252;49.816;7.964;2022-08-04T07:40:11;99725.16;;;28.94;37.69
29215;BME280;16252;49.816;7.964;2022-08-04T07:42:37;99710.53;;;29.06;37.40
29215;BME280;16252;49.816;7.964;2022-08-04T07:45:03;99711.66;;;29.22;37.29
29215;BME280;16252;49.816;7.964;2022-08-04T07:47:29;99712.88;;;29.43;37.01
29215;BME280;16252;49.816;7.964;2022-08-04T07:49:54;99715.09;;;29.57;36.97
29215;BME280;16252;49.816;7.964;2022-08-04T07:52:20;99710.41;;;29.75;36.73
29215;BME280;16252;49.816;7.964;2022-08-04T07:54:46;99715.13;;;29.91;36.56
29215;BME280;16252;49.816;7.964;2022-08-04T07:57:15;99715.66;;;30.10;36.59
29215;BME280;16252;49.816;7.964;2022-08-04T07:59:40;99693.75;;;30.20;36.04
29215;BME280;16252;49.816;7.964;2022-08-04T08:02:07;99692.47;;;30.45;36.01
29215;BME280;16252;49.816;7.964;2022-08-04T08:04:32;99704.97;;;30.70;35.40
29215;BME280;16252;49.816;7.964;2022-08-04T08:06:58;99712.41;;;30.91;35.38
29215;BME280;16252;49.816;7.964;2022-08-04T08:09:23;99711.81;;;31.11;35.17
29215;BME280;16252;49.816;7.964;2022-08-04T08:11:50;99709.84;;;31.34;35.26
29215;BME280;16252;49.816;7.964;2022-08-04T08:14:17;99691.41;;;31.39;35.20
29215;BME280;16252;49.816;7.964;2022-08-04T08:16:42;99705.88;;;31.79;35.35
29215;BME280;16252;49.816;7.964;2022-08-04T08:19:08;99694.13;;;31.93;35.65
29215;BME280;16252;49.816;7.964;2022-08-04T08:21:34;99674.56;;;32.10;35.00
29215;BME280;16252;49.816;7.964;2022-08-04T08:23:59;99708.47;;;32.80;35.00
29215;BME280;16252;49.816;7.964;2022-08-04T08:26:25;99713.66;;;33.40;34.94
29215;BME280;16252;49.816;7.964;2022-08-04T08:28:51;99702.03;;;34.04;33.66
29215;BME280;16252;49.816;7.964;2022-08-04T08:31:16;99700.47;;;34.79;33.30
29215;BME280;16252;49.816;7.964;2022-08-04T08:33:42;99703.13;;;35.59;32.62
29215;BME280;16252;49.816;7.964;2022-08-04T08:36:47;99706.69;;;36.52;32.48
29215;BME280;16252;49.816;7.964;2022-08-04T08:39:21;99697.59;;;37.14;30.61
29215;BME280;16252;49.816;7.964;2022-08-04T08:44:54;99706.22;;;38.34;29.67
29215;BME280;16252;49.816;7.964;2022-08-04T08:53:26;99712.25;;;39.92;28.57
29215;BME280;16252;49.816;7.964;2022-08-04T08:59:00;99716.75;;;41.13;27.07
29215;BME280;16252;49.816;7.964;2022-08-04T09:05:01;99704.06;;;42.41;26.12
29215;BME280;16252;49.816;7.964;2022-08-04T09:13:05;99690.69;;;44.27;22.88
29215;BME280;16252;49.816;7.964;2022-08-04T09:15:46;99702.47;;;44.90;22.40
29215;BME280;16252;49.816;7.964;2022-08-04T09:18:27;99701.03;;;45.21;22.31
29215;BME280;16252;49.816;7.964;2022-08-04T09:21:01;99706.53;;;45.58;21.25
29215;BME280;16252;49.816;7.964;2022-08-04T09:24:05;99718.25;;;46.00;22.03
29215;BME280;16252;49.816;7.964;2022-08-04T09:26:43;99713.13;;;46.34;20.89
29215;BME280;16252;49.816;7.964;2022-08-04T09:29:19;99705.31;;;46.79;20.29
29215;BME280;16252;49.816;7.964;2022-08-04T09:32:04;99720.19;;;47.27;20.45
29215;BME280;16252;49.816;7.964;2022-08-04T09:37:44;99724.63;;;48.06;19.44
29215;BME280;16252;49.816;7.964;2022-08-04T09:40:25;99705.69;;;48.33;18.93
29215;BME280;16252;49.816;7.964;2022-08-04T09:46:01;99725.47;;;49.02;18.62
29215;BME280;16252;49.816;7.964;2022-08-04T09:51:20;99699.38;;;49.53;17.42
29215;BME280;16252;49.816;7.964;2022-08-04T09:54:01;99711.69;;;49.98;17.86
29215;BME280;16252;49.816;7.964;2022-08-04T09:56:37;99723.84;;;50.36;16.08
29215;BME280;16252;49.816;7.964;2022-08-04T09:59:24;99713.91;;;50.64;16.65
29215;BME280;16252;49.816;7.964;2022-08-04T10:01:54;99706.31;;;50.82;16.13
29215;BME280;16252;49.816;7.964;2022-08-04T10:04:21;99713.84;;;51.08;15.85
29215;BME280;16252;49.816;7.964;2022-08-04T10:10:14;99714.91;;;51.66;16.62
29215;BME280;16252;49.816;7.964;2022-08-04T10:16:00;99706.06;;;52.21;15.92
29215;BME280;16252;49.816;7.964;2022-08-04T10:19:00;99697.94;;;52.45;15.87
29215;BME280;16252;49.816;7.964;2022-08-04T10:21:37;99688.53;;;52.52;14.55
29215;BME280;16252;49.816;7.964;2022-08-04T10:29:37;99695.84;;;52.96;13.84
29215;BME280;16252;49.816;7.964;2022-08-04T10:34:42;99686.38;;;53.17;13.82
29215;BME280;16252;49.816;7.964;2022-08-04T10:37:20;99676.56;;;53.28;14.10
29215;BME280;16252;49.816;7.964;2022-08-04T10:39:55;99678.97;;;53.41;13.57
29215;BME280;16252;49.816;7.964;2022-08-04T10:43:24;99676.78;;;53.63;14.40
29215;BME280;16252;49.816;7.964;2022-08-04T10:45:57;99674.66;;;53.78;12.53
29215;BME280;16252;49.816;7.964;2022-08-04T10:51:20;99640.69;;;53.87;13.25
29215;BME280;16252;49.816;7.964;2022-08-04T10:53:59;99671.09;;;54.19;13.14
29215;BME280;16252;49.816;7.964;2022-08-04T10:56:34;99662.00;;;54.31;12.82
29215;BME280;16252;49.816;7.964;2022-08-04T10:59:06;99666.06;;;54.37;12.12
29215;BME280;16252;49.816;7.964;2022-08-04T11:01:39;99662.00;;;54.31;12.21
29215;BME280;16252;49.816;7.964;2022-08-04T11:04:15;99657.31;;;54.06;12.00
29215;BME280;16252;49.816;7.964;2022-08-04T11:06:42;99644.13;;;53.60;11.88
29215;BME280;16252;49.816;7.964;2022-08-04T11:09:10;99634.19;;;52.98;11.75
29215;BME280;16252;49.816;7.964;2022-08-04T11:11:42;99616.78;;;52.35;11.70
29215;BME280;16252;49.816;7.964;2022-08-04T11:14:19;99647.34;;;51.92;11.75
29215;BME280;16252;49.816;7.964;2022-08-04T11:19:30;99633.81;;;50.65;13.02
29215;BME280;16252;49.816;7.964;2022-08-04T11:22:05;99617.06;;;50.01;12.89
29215;BME280;16252;49.816;7.964;2022-08-04T11:24:44;99608.41;;;49.50;13.30
29215;BME280;16252;49.816;7.964;2022-08-04T11:27:50;99608.31;;;49.09;13.11
29215;BME280;16252;49.816;7.964;2022-08-04T11:30:09;99612.59;;;48.65;13.64
29215;BME280;16252;49.816;7.964;2022-08-04T11:35:58;99604.28;;;48.03;14.11
29215;BME280;16252;49.816;7.964;2022-08-04T11:40:57;99615.22;;;47.59;14.10
29215;BME280;16252;49.816;7.964;2022-08-04T11:43:32;99603.69;;;47.28;13.58
29215;BME280;16252;49.816;7.964;2022-08-04T11:46:07;99606.34;;;47.02;13.44
29215;BME280;16252;49.816;7.964;2022-08-04T11:48:44;99600.16;;;46.77;13.79
29215;BME280;16252;49.816;7.964;2022-08-04T11:51:11;99600.41;;;46.52;13.56
29215;BME280;16252;49.816;7.964;2022-08-04T11:53:38;99597.84;;;46.31;13.47
29215;BME280;16252;49.816;7.964;2022-08-04T11:56:07;99610.91;;;46.20;13.49
29215;BME280;16252;49.816;7.964;2022-08-04T11:58:36;99597.13;;;45.87;13.56
29215;BME280;16252;49.816;7.964;2022-08-04T12:01:15;99581.63;;;45.65;13.50
29215;BME280;16252;49.816;7.964;2022-08-04T12:06:37;99575.50;;;45.18;13.87
29215;BME280;16252;49.816;7.964;2022-08-04T12:09:35;99592.47;;;45.06;14.07
29215;BME280;16252;49.816;7.964;2022-08-04T12:12:31;99602.97;;;44.93;14.06
29215;BME280;16252;49.816;7.964;2022-08-04T12:15:15;99588.91;;;44.69;13.75
29215;BME280;16252;49.816;7.964;2022-08-04T12:18:26;99591.66;;;44.53;14.50
29215;BME280;16252;49.816;7.964;2022-08-04T12:20:54;99557.81;;;44.16;14.45
29215;BME280;16252;49.816;7.964;2022-08-04T12:23:23;99571.91;;;44.16;14.34
29215;BME280;16252;49.816;7.964;2022-08-04T12:25:53;99571.47;;;44.02;14.29
29215;BME280;16252;49.816;7.964;2022-08-04T12:28:34;99577.56;;;44.04;14.51
29215;BME280;16252;49.816;7.964;2022-08-04T12:33:53;99558.03;;;43.86;14.47
29215;BME280;16252;49.816;7.964;2022-08-04T12:36:35;99570.38;;;43.94;14.57
29215;BME280;16252;49.816;7.964;2022-08-04T12:41:39;99552.03;;;43.76;14.20
29215;BME280;16252;49.816;7.964;2022-08-04T12:44:12;99567.66;;;43.85;14.36
29215;BME280;16252;49.816;7.964;2022-08-04T12:46:39;99539.00;;;43.59;13.79
29215;BME280;16252;49.816;7.964;2022-08-04T12:49:07;99552.38;;;43.62;13.88
29215;BME280;16252;49.816;7.964;2022-08-04T12:51:40;99539.19;;;43.54;13.95
29215;BME280;16252;49.816;7.964;2022-08-04T12:54:08;99549.50;;;43.49;13.90
29215;BME280;16252;49.816;7.964;2022-08-04T12:56:35;99540.34;;;43.40;14.01
29215;BME280;16252;49.816;7.964;2022-08-04T12:59:06;99560.97;;;43.44;13.74
29215;BME280;16252;49.816;7.964;2022-08-04T13:01:32;99547.78;;;43.24;13.70
29215;BME280;16252;49.816;7.964;2022-08-04T13:04:14;99552.94;;;43.22;13.74
29215;BME280;16252;49.816;7.964;2022-08-04T13:06:41;99526.81;;;43.00;13.79
29215;BME280;16252;49.816;7.964;2022-08-04T13:09:13;99516.66;;;42.87;14.02
29215;BME280;16252;49.816;7.964;2022-08-04T13:11:42;99534.03;;;42.89;14.19
29215;BME280;16252;49.816;7.964;2022-08-04T13:14:10;99524.38;;;42.78;13.99
29215;BME280;16252;49.816;7.964;2022-08-04T13:16:36;99522.22;;;42.75;14.09
29215;BME280;16252;49.816;7.964;2022-08-04T13:19:05;99475.19;;;42.42;14.17
29215;BME280;16252;49.816;7.964;2022-08-04T13:21:31;99514.41;;;42.59;14.46
29215;BME280;16252;49.816;7.964;2022-08-04T13:24:02;99518.38;;;42.58;14.25
29215;BME280;16252;49.816;7.964;2022-08-04T13:26:29;99519.34;;;42.41;14.16
29215;BME280;16252;49.816;7.964;2022-08-04T13:28:58;99539.94;;;42.54;14.54
29215;BME280;16252;49.816;7.964;2022-08-04T13:31:26;99534.22;;;42.42;14.65
29215;BME280;16252;49.816;7.964;2022-08-04T13:33:53;99521.38;;;42.32;14.52
29215;BME280;16252;49.816;7.964;2022-08-04T13:36:23;99498.16;;;42.14;14.50
29215;BME280;16252;49.816;7.964;2022-08-04T13:38:54;99517.25;;;42.30;14.51
29215;BME280;16252;49.816;7.964;2022-08-04T13:41:22;99514.03;;;42.19;14.68
29215;BME280;16252;49.816;7.964;2022-08-04T13:43:53;99518.34;;;42.16;14.54
29215;BME280;16252;49.816;7.964;2022-08-04T13:46:27;99507.28;;;42.11;14.58
29215;BME280;16252;49.816;7.964;2022-08-04T13:48:54;99512.06;;;42.11;14.67
29215;BME280;16252;49.816;7.964;2022-08-04T13:51:22;99495.06;;;42.07;14.80
29215;BME280;16252;49.816;7.964;2022-08-04T13:53:57;99508.66;;;42.26;14.46
29215;BME280;16252;49.816;7.964;2022-08-04T13:56:33;99489.06;;;42.17;14.53
29215;BME280;16252;49.816;7.964;2022-08-04T13:59:02;99490.22;;;42.16;14.61
29215;BME280;16252;49.816;7.964;2022-08-04T14:01:28;99501.28;;;42.21;14.46
29215;BME280;16252;49.816;7.964;2022-08-04T14:06:47;99491.88;;;42.17;14.74
29215;BME280;16252;49.816;7.964;2022-08-04T14:09:15;99489.59;;;42.11;14.51
29215;BME280;16252;49.816;7.964;2022-08-04T14:11:47;99478.28;;;41.98;14.44
29215;BME280;16252;49.816;7.964;2022-08-04T14:14:13;99494.28;;;41.98;14.81
29215;BME280;16252;49.816;7.964;2022-08-04T14:17:15;99477.13;;;41.91;14.87
29215;BME280;16252;49.816;7.964;2022-08-04T14:27:23;99458.38;;;41.74;14.69
29215;BME280;16252;49.816;7.964;2022-08-04T14:29:49;99437.31;;;41.59;14.57
29215;BME280;16252;49.816;7.964;2022-08-04T14:32:14;99473.56;;;41.82;14.61
29215;BME280;16252;49.816;7.964;2022-08-04T14:34:42;99479.00;;;41.78;14.96
29215;BME280;16252;49.816;7.964;2022-08-04T14:37:10;99471.44;;;41.70;14.93
29215;BME280;16252;49.816;7.964;2022-08-04T14:39:41;99462.06;;;41.66;15.13
29215;BME280;16252;49.816;7.964;2022-08-04T14:42:07;99460.47;;;41.56;14.86
29215;BME280;16252;49.816;7.964;2022-08-04T14:44:53;99476.13;;;41.66;15.06
29215;BME280;16252;49.816;7.964;2022-08-04T14:47:38;99449.41;;;41.51;14.84
29215;BME280;16252;49.816;7.964;2022-08-04T14:50:04;99462.13;;;41.40;15.07
29215;BME280;16252;49.816;7.964;2022-08-04T14:52:29;99462.31;;;41.34;14.79
29215;BME280;16252;49.816;7.964;2022-08-04T14:54:55;99456.56;;;41.31;14.93
29215;BME280;16252;49.816;7.964;2022-08-04T14:57:20;99466.81;;;41.27;15.04
29215;BME280;16252;49.816;7.964;2022-08-04T14:59:48;99451.84;;;41.14;14.98
29215;BME280;16252;49.816;7.964;2022-08-04T15:02:14;99443.28;;;41.10;14.87
29215;BME280;16252;49.816;7.964;2022-08-04T15:04:42;99463.41;;;41.12;14.95
29215;BME280;16252;49.816;7.964;2022-08-04T15:07:08;99443.59;;;41.00;15.07
29215;BME280;16252;49.816;7.964;2022-08-04T15:09:34;99442.28;;;40.98;14.99
29215;BME280;16252;49.816;7.964;2022-08-04T15:12:01;99436.00;;;40.92;14.99
29215;BME280;16252;49.816;7.964;2022-08-04T15:14:28;99455.97;;;41.08;14.89
29215;BME280;16252;49.816;7.964;2022-08-04T15:16:54;99420.84;;;40.84;15.22
29215;BME280;16252;49.816;7.964;2022-08-04T15:19:20;99400.25;;;40.71;15.44
29215;BME280;16252;49.816;7.964;2022-08-04T15:21:46;99421.53;;;40.81;15.24
29215;BME280;16252;49.816;7.964;2022-08-04T15:24:12;99455.13;;;41.07;15.45
29215;BME280;16252;49.816;7.964;2022-08-04T15:26:48;99403.84;;;40.89;15.21
29215;BME280;16252;49.816;7.964;2022-08-04T15:29:37;99454.94;;;41.21;15.31
29215;BME280;16252;49.816;7.964;2022-08-04T15:32:05;99425.78;;;40.96;15.32
29215;BME280;16252;49.816;7.964;2022-08-04T15:34:51;99414.25;;;40.98;15.52
29215;BME280;16252;49.816;7.964;2022-08-04T15:37:38;99416.69;;;40.99;15.42
29215;BME280;16252;49.816;7.964;2022-08-04T15:45:55;99427.59;;;41.09;15.29
29215;BME280;16252;49.816;7.964;2022-08-04T15:48:25;99424.97;;;40.96;15.42
29215;BME280;16252;49.816;7.964;2022-08-04T15:58:51;99440.13;;;41.12;15.46
29215;BME280;16252;49.816;7.964;2022-08-04T16:01:16;99372.22;;;40.71;15.80
29215;BME280;16252;49.816;7.964;2022-08-04T16:04:04;99396.47;;;40.85;15.69
29215;BME280;16252;49.816;7.964;2022-08-04T16:27:08;99438.34;;;40.55;16.31
29215;BME280;16252;49.816;7.964;2022-08-04T16:34:41;99442.31;;;40.37;15.97
29215;BME280;16252;49.816;7.964;2022-08-04T16:37:11;99431.44;;;40.26;16.34
29215;BME280;16252;49.816;7.964;2022-08-04T16:39:38;99402.38;;;39.96;16.30
29215;BME280;16252;49.816;7.964;2022-08-04T16:50:21;99440.44;;;39.89;16.52
29215;BME280;16252;49.816;7.964;2022-08-04T16:52:48;99426.53;;;39.75;16.59
29215;BME280;16252;49.816;7.964;2022-08-04T16:55:19;99448.25;;;39.78;16.31
29215;BME280;16252;49.816;7.964;2022-08-04T16:57:48;99443.81;;;39.68;16.60
29215;BME280;16252;49.816;7.964;2022-08-04T17:00:14;99436.19;;;39.60;16.63
29215;BME280;16252;49.816;7.964;2022-08-04T17:02:41;99433.69;;;39.50;16.65
29215;BME280;16252;49.816;7.964;2022-08-04T17:05:27;99430.72;;;39.55;16.47
29215;BME280;16252;49.816;7.964;2022-08-04T17:07:57;99433.16;;;39.39;17.00
29215;BME280;16252;49.816;7.964;2022-08-04T17:10:44;99442.22;;;39.44;16.65
29215;BME280;16252;49.816;7.964;2022-08-04T17:13:45;99436.25;;;39.37;16.55